Time;durP1;ratioP1;P1;durP2;ratioP2;P2;SDS_P1;SDS_P2;PMS_P1;PMS_P2;Temp;Humidity;BMP_temperature;BMP_pressure;BME280_temperature;BME280_humidity;BME280_pressure;Samples;Min_cycle;Max_cycle;Signal;HPM_P1;HPM_P2
2023/07/25 00:04:13;;;;;;;0.98;0.90;;;;;;;;;;10154623;28;20400;-75
2023/07/25 00:09:14;;;;;;;1.17;1.17;;;;;;;;;;10148108;28;20254;-77
2023/07/25 00:14:15;;;;;;;0.90;0.90;;;;;;;;;;10143715;28;20307;-76
2023/07/25 00:19:16;;;;;;;1.48;0.95;;;;;;;;;;10154995;28;20819;-74
2023/07/25 00:24:17;;;;;;;4.68;1.60;;;;;;;;;;10155885;28;22185;-73
2023/07/25 00:29:18;;;;;;;2.53;1.60;;;;;;;;;;10152779;28;20227;-75
2023/07/25 00:34:19;;;;;;;3.60;0.90;;;;;;;;;;10156205;28;20301;-75
2023/07/25 00:39:20;;;;;;;1.98;1.52;;;;;;;;;;10149521;28;20223;-75
2023/07/25 00:44:21;;;;;;;1.25;1.25;;;;;;;;;;10120192;28;20461;-75
2023/07/25 00:49:22;;;;;;;0.95;0.95;;;;;;;;;;10125821;28;20255;-76
2023/07/25 00:54:23;;;;;;;1.35;1.35;;;;;;;;;;10147418;28;20223;-74
2023/07/25 00:59:24;;;;;;;0.98;0.95;;;;;;;;;;10138383;28;21238;-76
2023/07/25 01:04:25;;;;;;;3.10;1.40;;;;;;;;;;10140034;28;20772;-75
2023/07/25 01:09:37;;;;;;;1.67;1.40;;;;;;;;;;10133655;28;20542;-75
2023/07/25 01:14:39;;;;;;;1.77;1.67;;;;;;;;;;10142317;28;20679;-76
2023/07/25 01:19:41;;;;;;;1.20;1.20;;;;;;;;;;10126780;28;20223;-78
2023/07/25 01:24:46;;;;;;;1.45;1.45;;;;;;;;;;10145398;28;20219;-76
2023/07/25 01:29:48;;;;;;;4.10;1.00;;;;;;;;;;10144229;28;20346;-77
2023/07/25 01:34:49;;;;;;;1.05;1.05;;;;;;;;;;10138906;28;20298;-76
2023/07/25 01:39:50;;;;;;;1.70;0.75;;;;;;;;;;10152993;28;21093;-76
2023/07/25 01:44:51;;;;;;;1.15;1.15;;;;;;;;;;10139591;28;20239;-76
2023/07/25 01:49:55;;;;;;;1.67;1.58;;;;;;;;;;10131095;28;20915;-78
2023/07/25 01:54:56;;;;;;;1.60;0.95;;;;;;;;;;10132246;28;20353;-75
2023/07/25 01:59:58;;;;;;;2.15;1.25;;;;;;;;;;10146021;28;20292;-74
2023/07/25 02:04:59;;;;;;;1.95;1.55;;;;;;;;;;10123277;28;20223;-75
2023/07/25 02:10:00;;;;;;;0.77;0.77;;;;;;;;;;10118296;28;20745;-76
2023/07/25 02:15:01;;;;;;;3.60;1.45;;;;;;;;;;10132730;28;20219;-76
2023/07/25 02:20:02;;;;;;;1.15;0.90;;;;;;;;;;10130239;28;20223;-75
2023/07/25 02:25:04;;;;;;;0.60;0.60;;;;;;;;;;10152775;28;20291;-76
2023/07/25 02:30:05;;;;;;;4.22;0.90;;;;;;;;;;10141349;28;22268;-75
2023/07/25 02:35:06;;;;;;;0.50;0.50;;;;;;;;;;10141293;28;21328;-78
2023/07/25 02:40:08;;;;;;;0.50;0.50;;;;;;;;;;10142918;28;21641;-77
2023/07/25 02:45:09;;;;;;;0.80;0.80;;;;;;;;;;10142646;28;20293;-75
2023/07/25 02:50:10;;;;;;;0.73;0.73;;;;;;;;;;10106773;28;20396;-76
2023/07/25 02:55:11;;;;;;;4.88;1.42;;;;;;;;;;10112085;28;21152;-76
2023/07/25 03:00:12;;;;;;;0.75;0.75;;;;;;;;;;10155689;28;20319;-77
2023/07/25 03:05:15;;;;;;;3.40;0.90;;;;;;;;;;10140541;28;20203;-74
2023/07/25 03:10:16;;;;;;;1.02;0.63;;;;;;;;;;10138451;28;20223;-75
2023/07/25 03:15:17;;;;;;;3.58;1.08;;;;;;;;;;10148022;28;20860;-77
2023/07/25 03:20:18;;;;;;;1.00;0.68;;;;;;;;;;10135721;28;20301;-75
2023/07/25 03:25:19;;;;;;;0.52;0.52;;;;;;;;;;10147222;28;20263;-77
2023/07/25 03:30:20;;;;;;;4.82;0.85;;;;;;;;;;10147078;28;20191;-75
2023/07/25 03:35:21;;;;;;;0.63;0.63;;;;;;;;;;10146885;28;20298;-78
2023/07/25 03:40:23;;;;;;;2.15;0.98;;;;;;;;;;10143055;28;20853;-78
2023/07/25 03:45:24;;;;;;;1.85;0.80;;;;;;;;;;10148728;28;22350;-75
2023/07/25 03:50:26;;;;;;;8.48;1.15;;;;;;;;;;10147367;28;21438;-76
2023/07/25 03:55:27;;;;;;;0.95;0.95;;;;;;;;;;10152658;28;20970;-75
2023/07/25 04:00:28;;;;;;;1.05;0.80;;;;;;;;;;10110030;28;20790;-78
2023/07/25 04:05:29;;;;;;;0.60;0.60;;;;;;;;;;10155883;28;21238;-75
2023/07/25 04:10:30;;;;;;;0.60;0.60;;;;;;;;;;10136385;28;20652;-77
2023/07/25 04:15:31;;;;;;;0.95;0.60;;;;;;;;;;10137597;28;21097;-76
2023/07/25 04:20:32;;;;;;;0.70;0.70;;;;;;;;;;10130245;28;21612;-79
2023/07/25 04:25:33;;;;;;;7.68;0.95;;;;;;;;;;10152240;28;21036;-77
2023/07/25 04:30:34;;;;;;;0.50;0.50;;;;;;;;;;10137582;28;20246;-75
2023/07/25 04:35:35;;;;;;;0.47;0.47;;;;;;;;;;10150006;28;20273;-76
2023/07/25 04:40:36;;;;;;;3.22;0.90;;;;;;;;;;10152590;28;20577;-75
2023/07/25 04:45:38;;;;;;;1.17;1.17;;;;;;;;;;10148419;28;21132;-73
2023/07/25 04:50:39;;;;;;;0.77;0.57;;;;;;;;;;10137469;28;20215;-76
2023/07/25 04:55:40;;;;;;;1.50;1.40;;;;;;;;;;10151834;28;20224;-77
2023/07/25 05:00:41;;;;;;;5.47;0.82;;;;;;;;;;10146143;28;20223;-76
2023/07/25 05:05:44;;;;;;;1.83;0.90;;;;;;;;;;10144708;28;20676;-75
2023/07/25 05:10:45;;;;;;;0.60;0.60;;;;;;;;;;10116577;28;20623;-74
2023/07/25 05:15:46;;;;;;;0.63;0.63;;;;;;;;;;10134099;28;20334;-74
2023/07/25 05:20:47;;;;;;;0.50;0.50;;;;;;;;;;10138882;28;20226;-77
2023/07/25 05:25:48;;;;;;;0.70;0.70;;;;;;;;;;10145076;28;20377;-77
2023/07/25 05:30:49;;;;;;;0.70;0.60;;;;;;;;;;10138044;28;20219;-74
2023/07/25 05:35:50;;;;;;;3.72;0.70;;;;;;;;;;10121857;28;20470;-75
2023/07/25 05:40:53;;;;;;;1.27;1.20;;;;;;;;;;10111179;28;20834;-77
2023/07/25 05:45:54;;;;;;;1.10;1.10;;;;;;;;;;10124122;28;20902;-74
2023/07/25 05:50:55;;;;;;;3.17;1.42;;;;;;;;;;10142215;28;20215;-74
2023/07/25 05:55:56;;;;;;;4.15;1.40;;;;;;;;;;10135943;28;20228;-76
2023/07/25 06:00:57;;;;;;;1.10;1.10;;;;;;;;;;10145018;28;21725;-76
2023/07/25 06:05:58;;;;;;;0.80;0.80;;;;;;;;;;10133320;28;20375;-77
2023/07/25 06:10:59;;;;;;;1.13;1.13;;;;;;;;;;10146245;28;20238;-75
2023/07/25 06:16:00;;;;;;;7.28;1.27;;;;;;;;;;10153317;28;20328;-77
2023/07/25 06:21:02;;;;;;;1.17;1.08;;;;;;;;;;10150545;28;20207;-75
2023/07/25 06:26:03;;;;;;;1.35;1.27;;;;;;;;;;10154589;28;20250;-76
2023/07/25 06:31:04;;;;;;;3.60;0.90;;;;;;;;;;10146986;28;20211;-75
2023/07/25 06:36:05;;;;;;;0.90;0.90;;;;;;;;;;10126634;28;20724;-73
2023/07/25 06:41:06;;;;;;;0.90;0.90;;;;;;;;;;10153993;28;20224;-77
2023/07/25 06:46:07;;;;;;;1.38;0.98;;;;;;;;;;10153325;28;20223;-75
2023/07/25 06:51:08;;;;;;;5.47;0.90;;;;;;;;;;10121472;28;21486;-76
2023/07/25 06:56:09;;;;;;;0.75;0.75;;;;;;;;;;10127659;28;20938;-76
2023/07/25 07:01:10;;;;;;;3.80;1.13;;;;;;;;;;10152629;28;20251;-76
2023/07/25 07:06:11;;;;;;;0.93;0.90;;;;;;;;;;10130506;28;20337;-73
2023/07/25 07:11:12;;;;;;;2.65;1.02;;;;;;;;;;10148732;28;21411;-76
2023/07/25 07:16:14;;;;;;;1.00;1.00;;;;;;;;;;10168831;28;21199;-74
2023/07/25 07:21:15;;;;;;;1.05;0.60;;;;;;;;;;10143635;28;20226;-76
2023/07/25 07:26:16;;;;;;;4.30;0.57;;;;;;;;;;10147142;28;22003;-75
2023/07/25 07:31:23;;;;;;;5.22;0.73;;;;;;;;;;10149008;28;20221;-76
2023/07/25 07:36:24;;;;;;;1.98;0.73;;;;;;;;;;10156840;28;20724;-76
2023/07/25 07:41:25;;;;;;;4.95;0.80;;;;;;;;;;10158194;28;20361;-78
2023/07/25 07:46:29;;;;;;;5.47;1.10;;;;;;;;;;10144897;28;20899;-77
2023/07/25 07:51:30;;;;;;;0.60;0.60;;;;;;;;;;10161785;28;20226;-77
2023/07/25 07:56:31;;;;;;;1.45;0.63;;;;;;;;;;10129287;28;20302;-77
2023/07/25 08:01:32;;;;;;;4.20;1.15;;;;;;;;;;10141221;28;22715;-74
2023/07/25 08:06:33;;;;;;;0.70;0.70;;;;;;;;;;10139348;28;20407;-74
2023/07/25 08:11:34;;;;;;;1.08;0.60;;;;;;;;;;10146215;28;20933;-77
2023/07/25 08:16:35;;;;;;;0.50;0.50;;;;;;;;;;10142829;28;20219;-77
2023/07/25 08:21:36;;;;;;;2.83;0.60;;;;;;;;;;10144727;28;21273;-76
2023/07/25 08:26:38;;;;;;;1.85;0.70;;;;;;;;;;10134264;28;20229;-73
2023/07/25 08:31:39;;;;;;;1.95;0.80;;;;;;;;;;10125176;28;20393;-78
2023/07/25 08:36:40;;;;;;;4.60;0.60;;;;;;;;;;10147654;28;20228;-77
2023/07/25 08:41:46;;;;;;;0.82;0.50;;;;;;;;;;10140765;28;21160;-75
2023/07/25 08:46:49;;;;;;;1.15;0.65;;;;;;;;;;10133415;28;20223;-76
2023/07/25 08:51:52;;;;;;;0.60;0.60;;;;;;;;;;10128266;28;20227;-74
2023/07/25 08:56:54;;;;;;;0.60;0.60;;;;;;;;;;10164423;28;20223;-77
2023/07/25 09:01:55;;;;;;;1.95;0.60;;;;;;;;;;10152352;28;20864;-74
2023/07/25 09:06:57;;;;;;;0.63;0.52;;;;;;;;;;10139384;28;21383;-76
2023/07/25 09:11:58;;;;;;;0.65;0.65;;;;;;;;;;10085795;28;20232;-75
2023/07/25 09:16:59;;;;;;;0.47;0.47;;;;;;;;;;10083114;28;21884;-74
2023/07/25 09:22:00;;;;;;;2.30;0.73;;;;;;;;;;10075373;28;20216;-77
2023/07/25 09:27:01;;;;;;;2.65;0.88;;;;;;;;;;10079991;28;20313;-74
2023/07/25 09:32:07;;;;;;;1.92;0.45;;;;;;;;;;10089951;28;21237;-74
2023/07/25 09:37:08;;;;;;;3.60;0.70;;;;;;;;;;10072910;28;21600;-77
2023/07/25 09:42:10;;;;;;;6.90;0.52;;;;;;;;;;10086411;28;20212;-75
2023/07/25 09:47:12;;;;;;;0.40;0.40;;;;;;;;;;10068488;28;21407;-77
2023/07/25 09:52:13;;;;;;;0.65;0.50;;;;;;;;;;10081726;28;20221;-74
2023/07/25 09:57:14;;;;;;;1.17;0.70;;;;;;;;;;10087984;28;20318;-75
2023/07/25 10:02:15;;;;;;;0.52;0.52;;;;;;;;;;10083558;28;20232;-75
2023/07/25 10:07:18;;;;;;;0.45;0.40;;;;;;;;;;10080187;28;20241;-75
2023/07/25 10:12:19;;;;;;;2.17;0.60;;;;;;;;;;10142622;28;20309;-77
2023/07/25 10:17:20;;;;;;;0.38;0.32;;;;;;;;;;10154881;28;20911;-75
2023/07/25 10:22:34;;;;;;;0.40;0.40;;;;;;;;;;10131506;28;20220;-74
2023/07/25 10:27:35;;;;;;;0.47;0.47;;;;;;;;;;10149812;28;20332;-76
2023/07/25 10:32:43;;;;;;;1.65;0.75;;;;;;;;;;10151848;28;20249;-74
2023/07/25 10:37:45;;;;;;;0.32;0.32;;;;;;;;;;10155725;28;21185;-78
2023/07/25 10:42:51;;;;;;;0.32;0.32;;;;;;;;;;10141270;28;20290;-77
2023/07/25 10:47:53;;;;;;;0.40;0.40;;;;;;;;;;10157719;28;20227;-78
2023/07/25 10:52:54;;;;;;;0.40;0.40;;;;;;;;;;10149285;28;20671;-76
2023/07/25 10:58:08;;;;;;;0.40;0.40;;;;;;;;;;10153933;28;20223;-77
2023/07/25 11:03:28;;;;;;;0.85;0.50;;;;;;;;;;10158893;28;20216;-75
2023/07/25 11:08:29;;;;;;;1.15;0.73;;;;;;;;;;10149753;28;20215;-77
2023/07/25 11:13:34;;;;;;;1.20;0.47;;;;;;;;;;10161790;28;20628;-76
2023/07/25 11:18:37;;;;;;;1.17;0.45;;;;;;;;;;10149290;28;21854;-76
2023/07/25 11:23:38;;;;;;;0.40;0.40;;;;;;;;;;10154682;28;20917;-78
2023/07/25 11:28:39;;;;;;;0.50;0.50;;;;;;;;;;10154276;28;20223;-75
2023/07/25 11:33:41;;;;;;;0.50;0.50;;;;;;;;;;10158220;28;20551;-76
2023/07/25 11:38:42;;;;;;;1.58;0.40;;;;;;;;;;10157837;28;20263;-77
2023/07/25 11:43:43;;;;;;;0.30;0.30;;;;;;;;;;10151043;28;20219;-78
2023/07/25 11:48:44;;;;;;;0.30;0.30;;;;;;;;;;10152536;28;20228;-78
2023/07/25 11:53:45;;;;;;;0.40;0.40;;;;;;;;;;10145112;28;21880;-75
2023/07/25 11:58:50;;;;;;;0.57;0.30;;;;;;;;;;10150063;28;22680;-77
2023/07/25 12:03:51;;;;;;;0.32;0.32;;;;;;;;;;10143540;28;20223;-77
2023/07/25 12:08:53;;;;;;;1.05;0.52;;;;;;;;;;10155906;28;20962;-78
2023/07/25 12:13:54;;;;;;;0.93;0.40;;;;;;;;;;10152870;28;20399;-77
2023/07/25 12:18:57;;;;;;;2.25;0.65;;;;;;;;;;10120773;28;20227;-78
2023/07/25 12:24:00;;;;;;;2.17;0.40;;;;;;;;;;10114528;28;20215;-78
2023/07/25 12:29:01;;;;;;;1.85;0.30;;;;;;;;;;10140623;28;20226;-79
2023/07/25 12:34:02;;;;;;;0.30;0.30;;;;;;;;;;10134079;28;20737;-79
2023/07/25 12:39:04;;;;;;;0.52;0.40;;;;;;;;;;10166362;28;22045;-76
2023/07/25 12:44:05;;;;;;;2.95;0.35;;;;;;;;;;10136535;28;20243;-77
2023/07/25 12:49:06;;;;;;;0.60;0.40;;;;;;;;;;10148561;28;20953;-78
2023/07/25 12:54:08;;;;;;;0.40;0.30;;;;;;;;;;10145988;28;20320;-78
2023/07/25 12:59:09;;;;;;;0.30;0.30;;;;;;;;;;10162343;28;22014;-78
2023/07/25 13:04:10;;;;;;;2.03;0.30;;;;;;;;;;10155476;28;22516;-77
2023/07/25 13:09:11;;;;;;;0.43;0.43;;;;;;;;;;10159457;28;20247;-78
2023/07/25 13:14:12;;;;;;;1.52;0.32;;;;;;;;;;10132520;28;20223;-78
2023/07/25 13:19:13;;;;;;;1.98;0.40;;;;;;;;;;10141950;28;20273;-78
2023/07/25 13:24:15;;;;;;;0.85;0.40;;;;;;;;;;10155347;28;21949;-79
2023/07/25 13:29:16;;;;;;;3.50;0.35;;;;;;;;;;10117606;28;20232;-77
2023/07/25 13:34:17;;;;;;;2.17;0.30;;;;;;;;;;10159877;28;20230;-78
2023/07/25 13:39:19;;;;;;;2.95;0.43;;;;;;;;;;10136046;28;20224;-79
2023/07/25 13:44:20;;;;;;;0.95;0.60;;;;;;;;;;10147522;28;20215;-79
2023/07/25 13:49:21;;;;;;;1.60;0.45;;;;;;;;;;10154462;28;22010;-78
2023/07/25 13:54:22;;;;;;;0.40;0.40;;;;;;;;;;10127017;28;20789;-79
2023/07/25 13:59:23;;;;;;;1.13;0.32;;;;;;;;;;10143224;28;20223;-79
2023/07/25 14:04:24;;;;;;;0.73;0.38;;;;;;;;;;10143005;28;20357;-79
2023/07/25 14:09:25;;;;;;;0.73;0.30;;;;;;;;;;10163427;28;20246;-78
2023/07/25 14:14:30;;;;;;;1.70;0.40;;;;;;;;;;10170943;28;20231;-77
2023/07/25 14:19:34;;;;;;;0.88;0.30;;;;;;;;;;10141446;28;21429;-78
2023/07/25 14:24:35;;;;;;;1.80;0.47;;;;;;;;;;10167300;28;21244;-75
2023/07/25 14:29:36;;;;;;;0.93;0.50;;;;;;;;;;10161479;28;20293;-78
2023/07/25 14:34:37;;;;;;;1.65;0.73;;;;;;;;;;10157520;28;20318;-78
2023/07/25 14:39:39;;;;;;;0.68;0.68;;;;;;;;;;10155221;28;20215;-77
2023/07/25 14:44:40;;;;;;;0.30;0.30;;;;;;;;;;10155802;28;20218;-78
2023/07/25 14:49:41;;;;;;;0.75;0.50;;;;;;;;;;10148753;28;20237;-77
2023/07/25 14:54:42;;;;;;;2.15;0.50;;;;;;;;;;10170882;28;20262;-75
2023/07/25 14:59:44;;;;;;;0.88;0.88;;;;;;;;;;10167119;28;20223;-75
2023/07/25 15:04:45;;;;;;;1.00;0.50;;;;;;;;;;10196185;28;21149;-78
2023/07/25 15:09:46;;;;;;;2.58;0.40;;;;;;;;;;10203372;28;20290;-74
2023/07/25 15:14:47;;;;;;;0.63;0.50;;;;;;;;;;10191035;28;20383;-75
2023/07/25 15:20:05;;;;;;;1.58;0.60;;;;;;;;;;10175009;28;20563;-76
2023/07/25 15:25:07;;;;;;;0.98;0.77;;;;;;;;;;10174844;28;20221;-77
2023/07/25 15:30:08;;;;;;;0.50;0.40;;;;;;;;;;10210483;28;20198;-76
2023/07/25 15:35:10;;;;;;;0.65;0.65;;;;;;;;;;10211121;28;20337;-76
2023/07/25 15:40:11;;;;;;;0.40;0.40;;;;;;;;;;10190020;28;20219;-78
2023/07/25 15:45:12;;;;;;;0.75;0.50;;;;;;;;;;10217238;28;21521;-76
2023/07/25 15:50:14;;;;;;;0.30;0.30;;;;;;;;;;10189034;28;20223;-76
2023/07/25 15:55:15;;;;;;;1.45;0.40;;;;;;;;;;10191709;28;21387;-80
2023/07/25 16:00:17;;;;;;;0.60;0.60;;;;;;;;;;10191449;28;20242;-77
2023/07/25 16:05:18;;;;;;;0.68;0.52;;;;;;;;;;10191245;28;20212;-76
2023/07/25 16:10:19;;;;;;;0.73;0.43;;;;;;;;;;10200527;28;21277;-77
2023/07/25 16:15:20;;;;;;;0.47;0.40;;;;;;;;;;10206188;28;21269;-75
2023/07/25 16:20:21;;;;;;;0.45;0.40;;;;;;;;;;10170947;28;20657;-76
2023/07/25 16:25:22;;;;;;;0.20;0.20;;;;;;;;;;10153479;28;20842;-76
2023/07/25 16:30:24;;;;;;;1.70;0.30;;;;;;;;;;10136980;28;20254;-77
2023/07/25 16:35:25;;;;;;;1.10;0.30;;;;;;;;;;10154768;28;20809;-76
2023/07/25 16:40:26;;;;;;;0.57;0.45;;;;;;;;;;10163052;28;20697;-77
2023/07/25 16:45:27;;;;;;;0.55;0.40;;;;;;;;;;10161940;28;20260;-75
2023/07/25 16:50:28;;;;;;;0.30;0.30;;;;;;;;;;10139491;28;20741;-75
2023/07/25 16:55:29;;;;;;;0.52;0.28;;;;;;;;;;10162970;28;20234;-79
2023/07/25 17:00:30;;;;;;;0.20;0.20;;;;;;;;;;10186037;28;20219;-82
2023/07/25 17:05:31;;;;;;;0.55;0.40;;;;;;;;;;10164393;28;20345;-78
2023/07/25 17:10:32;;;;;;;0.22;0.20;;;;;;;;;;10150012;28;20801;-76
2023/07/25 17:15:34;;;;;;;0.80;0.40;;;;;;;;;;10154006;28;20223;-78
2023/07/25 17:20:35;;;;;;;0.98;0.50;;;;;;;;;;10136333;28;20242;-77
2023/07/25 17:25:38;;;;;;;0.22;0.22;;;;;;;;;;10139539;28;20243;-76
2023/07/25 17:30:39;;;;;;;0.50;0.40;;;;;;;;;;10154569;28;20224;-75
2023/07/25 17:35:42;;;;;;;0.20;0.20;;;;;;;;;;10141139;28;20218;-78
2023/07/25 17:40:43;;;;;;;0.22;0.22;;;;;;;;;;10151657;28;20710;-78
2023/07/25 17:45:45;;;;;;;0.55;0.40;;;;;;;;;;10164314;28;20796;-78
2023/07/25 17:50:47;;;;;;;0.60;0.20;;;;;;;;;;10159936;28;20216;-76
2023/07/25 17:55:48;;;;;;;0.93;0.22;;;;;;;;;;10120517;28;20223;-76
2023/07/25 18:00:50;;;;;;;0.30;0.30;;;;;;;;;;10154991;28;20228;-76
2023/07/25 18:05:51;;;;;;;0.73;0.40;;;;;;;;;;10140802;28;20231;-77
2023/07/25 18:10:52;;;;;;;0.38;0.38;;;;;;;;;;10148194;28;20234;-77
2023/07/25 18:15:53;;;;;;;6.57;0.50;;;;;;;;;;10160347;28;22071;-75
2023/07/25 18:20:54;;;;;;;0.47;0.20;;;;;;;;;;10163142;28;20228;-74
2023/07/25 18:25:59;;;;;;;1.25;0.40;;;;;;;;;;10131795;28;20303;-75
2023/07/25 18:31:00;;;;;;;3.25;0.50;;;;;;;;;;10157700;28;21305;-74
2023/07/25 18:36:01;;;;;;;3.28;0.30;;;;;;;;;;10146391;28;20262;-75
2023/07/25 18:41:02;;;;;;;0.30;0.30;;;;;;;;;;10144251;28;20238;-76
2023/07/25 18:46:03;;;;;;;2.15;0.25;;;;;;;;;;10124028;28;20337;-76
2023/07/25 18:51:04;;;;;;;0.63;0.20;;;;;;;;;;10156132;28;20444;-78
2023/07/25 18:56:05;;;;;;;1.55;0.40;;;;;;;;;;10173106;28;20320;-75
2023/07/25 19:01:06;;;;;;;0.32;0.32;;;;;;;;;;10158010;28;21701;-75
2023/07/25 19:06:08;;;;;;;2.60;0.30;;;;;;;;;;10130857;28;20227;-74
2023/07/25 19:11:09;;;;;;;2.08;0.30;;;;;;;;;;10153631;28;20361;-77
2023/07/25 19:16:10;;;;;;;0.35;0.35;;;;;;;;;;10147535;28;22057;-76
2023/07/25 19:21:11;;;;;;;1.20;0.30;;;;;;;;;;10139887;28;20238;-75
2023/07/25 19:26:12;;;;;;;0.40;0.28;;;;;;;;;;10143576;28;20269;-78
2023/07/25 19:31:13;;;;;;;0.57;0.40;;;;;;;;;;10160545;28;20985;-76
2023/07/25 19:36:14;;;;;;;0.90;0.40;;;;;;;;;;10147610;28;20231;-76
2023/07/25 19:41:16;;;;;;;1.55;0.60;;;;;;;;;;10133644;28;20340;-77
2023/07/25 19:46:19;;;;;;;0.30;0.30;;;;;;;;;;10139990;28;20351;-75
2023/07/25 19:51:20;;;;;;;0.20;0.20;;;;;;;;;;10138395;28;20918;-79
2023/07/25 19:56:21;;;;;;;0.80;0.20;;;;;;;;;;10143633;28;20884;-74
2023/07/25 20:01:22;;;;;;;0.55;0.55;;;;;;;;;;10151672;28;20223;-76
2023/07/25 20:06:23;;;;;;;0.43;0.43;;;;;;;;;;10138045;28;22523;-74
2023/07/25 20:11:24;;;;;;;5.88;0.60;;;;;;;;;;10123454;28;22562;-74
2023/07/25 20:16:25;;;;;;;0.38;0.38;;;;;;;;;;10148986;28;20231;-75
2023/07/25 20:21:26;;;;;;;0.30;0.30;;;;;;;;;;10152457;28;22549;-75
2023/07/25 20:26:27;;;;;;;0.30;0.30;;;;;;;;;;10138634;28;20263;-76
2023/07/25 20:31:28;;;;;;;0.40;0.40;;;;;;;;;;10146081;28;20216;-74
2023/07/25 20:36:29;;;;;;;0.77;0.40;;;;;;;;;;10162117;28;20273;-74
2023/07/25 20:41:30;;;;;;;0.20;0.20;;;;;;;;;;10130794;28;20219;-76
2023/07/25 20:46:31;;;;;;;2.08;0.60;;;;;;;;;;10145500;28;20227;-77
2023/07/25 20:51:32;;;;;;;1.02;0.28;;;;;;;;;;10107638;28;21503;-75
2023/07/25 20:56:33;;;;;;;1.05;0.57;;;;;;;;;;10159069;28;20223;-74
2023/07/25 21:01:34;;;;;;;0.38;0.38;;;;;;;;;;10149266;28;20334;-75
2023/07/25 21:06:36;;;;;;;1.02;0.30;;;;;;;;;;10150400;28;20719;-75
2023/07/25 21:11:37;;;;;;;0.40;0.40;;;;;;;;;;10131302;28;22595;-76
2023/07/25 21:16:38;;;;;;;1.38;0.32;;;;;;;;;;10146450;28;20224;-74
2023/07/25 21:21:39;;;;;;;0.30;0.30;;;;;;;;;;10167931;28;20460;-75
2023/07/25 21:26:41;;;;;;;0.30;0.30;;;;;;;;;;10167718;28;20227;-75
2023/07/25 21:31:42;;;;;;;0.20;0.20;;;;;;;;;;10156073;28;20223;-75
2023/07/25 21:36:44;;;;;;;0.20;0.20;;;;;;;;;;10152408;28;21113;-76
2023/07/25 21:41:47;;;;;;;0.30;0.30;;;;;;;;;;10132801;28;21388;-74
2023/07/25 21:46:48;;;;;;;0.25;0.25;;;;;;;;;;10173515;28;20337;-75
2023/07/25 21:51:49;;;;;;;1.45;0.35;;;;;;;;;;10148192;28;20243;-73
2023/07/25 21:56:50;;;;;;;1.17;0.20;;;;;;;;;;10149419;28;20226;-75
2023/07/25 22:01:51;;;;;;;1.65;0.45;;;;;;;;;;10159811;28;20909;-74
2023/07/25 22:06:52;;;;;;;0.30;0.30;;;;;;;;;;10158208;28;20250;-73
2023/07/25 22:11:53;;;;;;;0.82;0.35;;;;;;;;;;10162454;28;20381;-74
2023/07/25 22:16:55;;;;;;;0.30;0.30;;;;;;;;;;10156768;28;21050;-74
2023/07/25 22:21:56;;;;;;;0.22;0.22;;;;;;;;;;10151790;28;20232;-75
2023/07/25 22:26:57;;;;;;;0.30;0.30;;;;;;;;;;10159205;28;22342;-76
2023/07/25 22:31:58;;;;;;;0.30;0.30;;;;;;;;;;10150812;28;20222;-75
2023/07/25 22:36:59;;;;;;;0.82;0.25;;;;;;;;;;10158023;28;20745;-75
2023/07/25 22:42:00;;;;;;;2.20;0.47;;;;;;;;;;10163507;28;20220;-77
2023/07/25 22:47:01;;;;;;;0.93;0.30;;;;;;;;;;10135705;28;20219;-74
2023/07/25 22:52:03;;;;;;;1.08;0.30;;;;;;;;;;10143454;28;20250;-76
2023/07/25 22:57:04;;;;;;;0.68;0.20;;;;;;;;;;10164557;28;22563;-75
2023/07/25 23:02:05;;;;;;;0.28;0.20;;;;;;;;;;10153030;28;20215;-75
2023/07/25 23:07:06;;;;;;;1.20;0.30;;;;;;;;;;10147501;28;23515;-74
2023/07/25 23:12:08;;;;;;;2.00;0.30;;;;;;;;;;10150616;28;22508;-76
2023/07/25 23:17:09;;;;;;;0.40;0.40;;;;;;;;;;10151107;28;21195;-75
2023/07/25 23:22:10;;;;;;;0.55;0.55;;;;;;;;;;10146959;28;21479;-73
2023/07/25 23:27:11;;;;;;;0.43;0.35;;;;;;;;;;10151068;28;20207;-73
2023/07/25 23:32:12;;;;;;;0.35;0.30;;;;;;;;;;10152206;28;20224;-73
2023/07/25 23:37:13;;;;;;;0.40;0.40;;;;;;;;;;10131870;28;20350;-75
2023/07/25 23:42:14;;;;;;;0.20;0.20;;;;;;;;;;10130526;28;20219;-74
2023/07/25 23:47:15;;;;;;;0.30;0.30;;;;;;;;;;10144256;28;20396;-75
2023/07/25 23:52:17;;;;;;;0.28;0.28;;;;;;;;;;10137985;28;21804;-77
2023/07/25 23:57:18;;;;;;;0.40;0.40;;;;;;;;;;10152001;28;21498;-73
